Time;durP1;ratioP1;P1;durP2;ratioP2;P2;SDS_P1;SDS_P2;PMS_P1;PMS_P2;Temp;Humidity;BMP_temperature;BMP_pressure;BME280_temperature;BME280_humidity;BME280_pressure;Samples;Min_cycle;Max_cycle;Signal;HPM_P1;HPM_P2
2022/03/18 00:01:24;;;;;;;0.10;0.10;;;7.40;1.00;226.50;231333.00;;;;5021048;28;20195;-71
2022/03/18 00:03:53;;;;;;;0.10;0.10;;;7.40;1.00;226.50;231333.00;;;;5023497;28;20219;-71
2022/03/18 00:06:21;;;;;;;0.10;0.10;;;7.40;1.00;226.50;231333.00;;;;5022108;28;20914;-71
2022/03/18 00:08:50;;;;;;;0.00;0.00;;;7.40;1.00;226.50;231333.00;;;;5020791;28;20191;-71
2022/03/18 00:11:19;;;;;;;0.10;0.10;;;7.40;1.00;226.50;231333.00;;;;5021982;28;20187;-71
2022/03/18 00:13:47;;;;;;;0.10;0.10;;;7.40;1.00;226.50;231333.00;;;;5021776;28;20196;-72
2022/03/18 00:16:15;;;;;;;0.10;0.10;;;7.50;1.00;226.50;231333.00;;;;5021351;28;20200;-72
2022/03/18 00:18:43;;;;;;;0.10;0.10;;;7.50;1.00;226.50;231333.00;;;;5002855;28;20203;-70
2022/03/18 00:21:11;;;;;;;0.10;0.10;;;7.50;1.00;226.50;231333.00;;;;5019794;28;20199;-73
2022/03/18 00:23:39;;;;;;;0.10;0.10;;;7.40;1.00;226.50;231333.00;;;;5020606;28;20736;-71
2022/03/18 00:26:09;;;;;;;0.10;0.10;;;7.40;1.00;226.50;231333.00;;;;5021925;28;20202;-72
2022/03/18 00:28:42;;;;;;;0.10;0.10;;;7.40;1.00;226.50;231333.00;;;;5020798;28;20281;-69
2022/03/18 00:31:12;;;;;;;0.10;0.10;;;7.40;1.00;226.50;231333.00;;;;5021331;28;20208;-71
2022/03/18 00:33:40;;;;;;;0.10;0.10;;;7.40;1.00;226.50;231333.00;;;;5020638;28;20223;-72
2022/03/18 00:36:08;;;;;;;0.10;0.10;;;7.40;1.00;226.50;231333.00;;;;5021770;28;20202;-72
2022/03/18 00:38:36;;;;;;;0.10;0.10;;;7.30;1.00;226.50;231333.00;;;;5021153;28;20268;-71
2022/03/18 00:41:04;;;;;;;0.10;0.10;;;7.30;1.00;226.50;231333.00;;;;5021197;28;20195;-71
2022/03/18 00:43:34;;;;;;;0.08;0.08;;;7.30;1.00;226.50;231333.00;;;;5019706;28;20222;-70
2022/03/18 00:46:02;;;;;;;0.03;0.03;;;7.30;1.00;226.50;231333.00;;;;5020604;28;20190;-71
2022/03/18 00:54:01;;;;;;;0.10;0.10;;;7.30;1.00;226.50;231333.00;;;;5020091;28;20677;-72
2022/03/18 00:56:29;;;;;;;0.10;0.10;;;7.30;1.00;226.50;231333.00;;;;5019002;28;20226;-72
2022/03/18 00:58:59;;;;;;;0.10;0.10;;;7.40;1.00;226.50;231333.00;;;;5019862;28;20188;-72
2022/03/18 01:01:28;;;;;;;0.10;0.10;;;7.30;1.00;226.50;231333.00;;;;5020302;28;20262;-72
2022/03/18 01:03:56;;;;;;;0.10;0.10;;;7.30;1.00;226.50;231333.00;;;;5019951;28;20305;-72
2022/03/18 01:06:24;;;;;;;0.10;0.10;;;7.30;1.00;226.50;231333.00;;;;5019922;28;20207;-72
2022/03/18 01:08:52;;;;;;;0.10;0.10;;;7.20;1.00;226.50;231333.00;;;;5019565;28;20665;-72
2022/03/18 01:11:20;;;;;;;0.00;0.00;;;7.20;1.00;226.50;231333.00;;;;5020406;28;20265;-72
2022/03/18 01:13:48;;;;;;;0.10;0.10;;;7.20;1.00;226.50;231333.00;;;;5020035;28;20209;-71
2022/03/18 01:16:17;;;;;;;0.10;0.10;;;7.30;1.00;226.50;231333.00;;;;5003478;28;20196;-72
2022/03/18 01:18:45;;;;;;;0.10;0.10;;;7.20;1.00;226.50;231333.00;;;;5021623;28;20192;-72
2022/03/18 01:21:13;;;;;;;0.10;0.10;;;7.20;1.00;226.50;231333.00;;;;5020442;28;20203;-72
2022/03/18 01:23:41;;;;;;;0.10;0.10;;;7.10;1.00;226.50;231333.00;;;;5019641;28;20216;-71
2022/03/18 01:26:09;;;;;;;0.10;0.10;;;7.10;1.00;226.50;231333.00;;;;5018395;28;20199;-70
2022/03/18 01:28:37;;;;;;;0.10;0.10;;;7.10;1.00;226.50;231333.00;;;;5023746;28;20257;-70
2022/03/18 01:31:05;;;;;;;0.10;0.10;;;7.10;1.00;226.50;231333.00;;;;5027137;28;20676;-70
2022/03/18 01:33:36;;;;;;;0.10;0.10;;;7.10;1.00;226.50;231333.00;;;;5024927;28;20306;-70
2022/03/18 01:36:06;;;;;;;0.10;0.10;;;7.10;1.00;226.50;231333.00;;;;5026188;28;20199;-71
2022/03/18 01:38:34;;;;;;;0.10;0.10;;;7.10;1.00;226.50;231333.00;;;;5027101;28;20204;-72
2022/03/18 01:41:01;;;;;;;0.10;0.10;;;7.10;1.00;226.50;231333.00;;;;5027129;28;20198;-72
2022/03/18 01:43:37;;;;;;;0.10;0.10;;;7.10;1.00;226.50;231333.00;;;;5028513;28;20266;-72
2022/03/18 01:46:06;;;;;;;0.10;0.10;;;7.10;1.00;226.50;231333.00;;;;5031075;28;20388;-71
2022/03/18 01:48:35;;;;;;;0.10;0.10;;;7.10;1.00;226.50;231333.00;;;;5025403;28;20199;-73
2022/03/18 01:51:06;;;;;;;0.10;0.10;;;7.10;1.00;226.50;231333.00;;;;5019477;28;20267;-72
2022/03/18 01:53:37;;;;;;;0.10;0.10;;;7.10;1.00;226.50;231333.00;;;;5020252;28;20306;-72
2022/03/18 01:56:07;;;;;;;0.10;0.10;;;7.10;1.00;226.50;231333.00;;;;5019896;28;20232;-73
2022/03/18 01:58:35;;;;;;;0.10;0.10;;;7.00;1.00;226.50;231333.00;;;;5019460;28;20615;-72
2022/03/18 02:01:04;;;;;;;0.00;0.00;;;7.00;1.00;226.50;231333.00;;;;5019989;28;20191;-73
2022/03/18 02:03:32;;;;;;;0.10;0.10;;;6.90;1.00;226.50;231333.00;;;;5020230;28;20234;-72
2022/03/18 02:06:02;;;;;;;0.10;0.10;;;6.90;1.00;226.50;231333.00;;;;5018897;28;20276;-70
2022/03/18 02:08:30;;;;;;;0.10;0.10;;;6.90;1.00;226.50;231333.00;;;;5022256;28;20195;-72
2022/03/18 02:10:59;;;;;;;0.00;0.00;;;6.80;1.00;226.50;231333.00;;;;5022373;28;20242;-72
2022/03/18 02:13:27;;;;;;;0.00;0.00;;;6.80;1.00;226.50;231333.00;;;;5003924;28;20704;-71
2022/03/18 02:15:55;;;;;;;0.10;0.10;;;6.80;1.00;226.50;231333.00;;;;5024071;28;20670;-71
2022/03/18 02:18:23;;;;;;;0.10;0.10;;;6.80;1.00;226.50;231333.00;;;;5024870;28;20618;-71
2022/03/18 02:20:51;;;;;;;0.10;0.10;;;6.80;1.00;226.50;231333.00;;;;5024433;28;20199;-72
2022/03/18 02:23:20;;;;;;;0.10;0.10;;;6.80;1.00;226.50;231333.00;;;;5023656;28;20619;-72
2022/03/18 02:25:49;;;;;;;0.10;0.10;;;6.80;1.00;226.50;231333.00;;;;5023418;28;20688;-72
2022/03/18 02:28:18;;;;;;;0.10;0.10;;;6.90;1.00;226.50;231333.00;;;;5022117;28;20195;-72
2022/03/18 02:30:46;;;;;;;0.10;0.10;;;6.90;1.00;226.50;231333.00;;;;5021757;28;20214;-72
2022/03/18 02:33:14;;;;;;;0.10;0.10;;;6.90;1.00;226.50;231333.00;;;;5022052;28;20230;-72
2022/03/18 02:35:42;;;;;;;0.10;0.10;;;6.80;1.00;226.50;231333.00;;;;5022132;28;20203;-71
2022/03/18 02:38:10;;;;;;;0.00;0.00;;;6.80;1.00;226.50;231333.00;;;;5019180;28;20191;-72
2022/03/18 02:40:39;;;;;;;0.00;0.00;;;6.80;1.00;226.50;231333.00;;;;5018527;28;20199;-72
2022/03/18 02:43:07;;;;;;;0.08;0.08;;;6.70;1.00;226.50;231333.00;;;;5021073;28;20708;-72
2022/03/18 02:45:35;;;;;;;0.10;0.10;;;6.80;1.00;226.50;231333.00;;;;5022233;28;20689;-71
2022/03/18 02:48:04;;;;;;;0.03;0.03;;;6.80;1.00;226.50;231333.00;;;;5023742;28;20607;-71
2022/03/18 02:50:33;;;;;;;0.05;0.05;;;6.80;1.00;226.50;231333.00;;;;5023454;28;20204;-71
2022/03/18 02:53:00;;;;;;;0.10;0.10;;;6.80;1.00;226.50;231333.00;;;;5025381;28;20265;-71
2022/03/18 02:55:29;;;;;;;0.10;0.10;;;6.70;1.00;226.50;231333.00;;;;5025093;28;20191;-71
2022/03/18 02:57:58;;;;;;;0.00;0.00;;;6.70;1.00;226.50;231333.00;;;;5024215;28;20191;-71
2022/03/18 03:00:26;;;;;;;0.10;0.10;;;6.70;1.00;226.50;231333.00;;;;5024418;28;20203;-71
2022/03/18 03:02:54;;;;;;;0.00;0.00;;;6.60;1.00;226.50;231333.00;;;;5005155;28;20273;-71
2022/03/18 03:08:05;;;;;;;0.00;0.00;;;6.70;1.00;226.50;231333.00;;;;4984651;28;20261;-70
2022/03/18 03:10:36;;;;;;;0.00;0.00;;;6.70;1.00;226.50;231333.00;;;;5023490;28;20199;-70
2022/03/18 03:13:10;;;;;;;0.00;0.00;;;6.60;1.00;226.50;231333.00;;;;5022970;28;20774;-69
2022/03/18 03:15:39;;;;;;;0.10;0.10;;;6.60;1.00;226.50;231333.00;;;;5021164;28;20202;-69
2022/03/18 03:18:07;;;;;;;0.10;0.10;;;6.60;1.00;226.50;231333.00;;;;5022695;28;20242;-69
2022/03/18 03:20:35;;;;;;;0.10;0.10;;;6.60;1.00;226.50;231333.00;;;;5021786;28;20254;-69
2022/03/18 03:23:03;;;;;;;0.10;0.10;;;6.50;1.00;226.50;231333.00;;;;5022443;28;20203;-69
2022/03/18 03:25:31;;;;;;;0.10;0.10;;;6.60;1.00;226.50;231333.00;;;;5020418;28;20264;-69
2022/03/18 03:28:00;;;;;;;0.10;0.10;;;6.50;1.00;226.50;231333.00;;;;5022466;28;20238;-69
2022/03/18 03:30:29;;;;;;;0.10;0.10;;;6.50;1.00;226.50;231333.00;;;;5021659;28;20251;-70
2022/03/18 03:32:57;;;;;;;0.03;0.03;;;6.40;1.00;226.50;231333.00;;;;5022475;28;20211;-70
2022/03/18 03:35:25;;;;;;;0.10;0.10;;;6.50;1.00;226.50;231333.00;;;;5022042;28;20363;-70
2022/03/18 03:37:53;;;;;;;0.00;0.00;;;6.40;1.00;226.50;231333.00;;;;5023362;28;20187;-70
2022/03/18 03:40:21;;;;;;;0.10;0.10;;;6.50;1.00;226.50;231333.00;;;;5022390;28;20716;-70
2022/03/18 03:42:49;;;;;;;0.10;0.10;;;6.50;1.00;226.50;231333.00;;;;5021864;28;20214;-69
2022/03/18 03:45:17;;;;;;;0.10;0.10;;;6.50;1.00;226.50;231333.00;;;;5021795;28;20767;-71
2022/03/18 03:47:46;;;;;;;0.10;0.10;;;6.50;1.00;226.50;231333.00;;;;5021315;28;20250;-70
2022/03/18 03:50:14;;;;;;;0.10;0.10;;;6.40;1.00;226.50;231333.00;;;;5021657;28;20599;-71
2022/03/18 03:52:43;;;;;;;0.10;0.10;;;6.40;1.00;226.50;231333.00;;;;5021849;28;20219;-70
2022/03/18 03:55:14;;;;;;;0.10;0.10;;;6.40;1.00;226.50;231333.00;;;;5022918;28;20195;-70
2022/03/18 03:57:42;;;;;;;0.10;0.10;;;6.40;1.00;226.50;231333.00;;;;5021461;28;20192;-70
2022/03/18 04:00:12;;;;;;;0.10;0.10;;;6.40;1.00;226.50;231333.00;;;;5021508;28;20241;-71
2022/03/18 04:02:42;;;;;;;0.08;0.08;;;6.40;1.00;226.50;231333.00;;;;5022872;28;20655;-71
2022/03/18 04:05:12;;;;;;;0.10;0.10;;;6.40;1.00;226.50;231333.00;;;;5021527;28;20605;-72
2022/03/18 04:07:44;;;;;;;0.10;0.10;;;6.30;1.00;226.50;231333.00;;;;5020736;28;20208;-71
2022/03/18 04:10:14;;;;;;;0.10;0.10;;;6.40;1.00;226.50;231333.00;;;;5021027;28;20195;-71
2022/03/18 04:12:43;;;;;;;0.10;0.10;;;6.30;1.00;226.50;231333.00;;;;5021684;28;20250;-71
2022/03/18 04:15:11;;;;;;;0.10;0.10;;;6.30;1.00;226.50;231333.00;;;;5022227;28;20199;-71
2022/03/18 04:17:42;;;;;;;0.00;0.00;;;6.30;1.00;226.50;231333.00;;;;5021675;28;20563;-71
2022/03/18 04:20:14;;;;;;;0.10;0.10;;;6.20;1.00;226.50;231333.00;;;;5020361;28;20250;-71
2022/03/18 04:22:42;;;;;;;0.00;0.00;;;6.20;1.00;226.50;231333.00;;;;5021738;28;20328;-72
2022/03/18 04:25:11;;;;;;;0.10;0.10;;;6.20;1.00;226.50;231333.00;;;;5021142;28;20677;-72
2022/03/18 04:27:40;;;;;;;0.10;0.10;;;6.20;1.00;226.50;231333.00;;;;5020484;28;20261;-72
2022/03/18 04:30:13;;;;;;;0.10;0.10;;;6.20;1.00;226.50;231333.00;;;;5020321;28;20523;-72
2022/03/18 04:32:42;;;;;;;0.10;0.10;;;6.20;1.00;226.50;231333.00;;;;5020605;28;20227;-72
2022/03/18 04:35:12;;;;;;;0.10;0.10;;;6.20;1.00;226.50;231333.00;;;;5021202;28;20207;-72
2022/03/18 04:37:41;;;;;;;0.10;0.10;;;6.20;1.00;226.50;231333.00;;;;5020423;28;20274;-72
2022/03/18 04:40:12;;;;;;;0.10;0.10;;;6.10;1.00;226.50;231333.00;;;;5021671;28;20198;-72
2022/03/18 04:42:40;;;;;;;0.10;0.10;;;6.10;1.00;226.50;231333.00;;;;5020821;28;20660;-72
2022/03/18 04:45:10;;;;;;;0.10;0.10;;;6.10;1.00;226.50;231333.00;;;;5021393;28;20223;-72
2022/03/18 04:47:38;;;;;;;0.10;0.10;;;6.20;1.00;226.50;231333.00;;;;5019629;28;20572;-71
2022/03/18 04:50:07;;;;;;;0.10;0.10;;;6.20;1.00;226.50;231333.00;;;;5019534;28;20187;-71
2022/03/18 04:52:37;;;;;;;0.10;0.10;;;6.20;1.00;226.50;231333.00;;;;5021862;28;20212;-71
2022/03/18 04:55:07;;;;;;;0.10;0.10;;;6.10;1.00;226.50;231333.00;;;;5021269;28;20203;-71
2022/03/18 04:57:36;;;;;;;0.10;0.10;;;6.10;1.00;226.50;231333.00;;;;5020160;28;20184;-71
2022/03/18 05:00:06;;;;;;;0.10;0.10;;;6.10;1.00;226.50;231333.00;;;;5021491;28;20199;-71
2022/03/18 05:02:35;;;;;;;0.05;0.05;;;6.00;1.00;226.50;231333.00;;;;5020584;28;20223;-70
2022/03/18 05:05:08;;;;;;;0.10;0.10;;;6.00;1.00;226.50;231333.00;;;;5021036;28;20195;-70
2022/03/18 05:07:39;;;;;;;0.10;0.10;;;5.90;1.00;226.50;231333.00;;;;5019604;28;20215;-69
2022/03/18 05:10:09;;;;;;;0.10;0.10;;;5.90;1.00;226.50;231333.00;;;;5020929;28;20735;-70
2022/03/18 05:12:37;;;;;;;0.00;0.00;;;5.90;1.00;226.50;231333.00;;;;5021197;28;21744;-70
2022/03/18 05:15:08;;;;;;;0.00;0.00;;;6.00;1.00;226.50;231333.00;;;;5021223;28;20184;-70
2022/03/18 05:17:36;;;;;;;0.10;0.10;;;6.00;1.00;226.50;231333.00;;;;5021983;28;20688;-70
2022/03/18 05:20:07;;;;;;;0.00;0.00;;;6.00;1.00;226.50;231333.00;;;;5024270;28;20242;-71
2022/03/18 05:22:35;;;;;;;0.10;0.10;;;6.00;1.00;226.50;231333.00;;;;5019435;28;20272;-70
2022/03/18 05:25:05;;;;;;;0.10;0.10;;;6.00;1.00;226.50;231333.00;;;;5021264;28;20245;-70
2022/03/18 05:27:33;;;;;;;0.00;0.00;;;6.00;1.00;226.50;231333.00;;;;5019318;28;20275;-70
2022/03/18 05:30:01;;;;;;;0.10;0.10;;;6.00;1.00;226.50;231333.00;;;;5020696;28;20615;-70
2022/03/18 05:32:29;;;;;;;0.00;0.00;;;6.10;1.00;226.50;231333.00;;;;5019842;28;20211;-73
2022/03/18 05:34:57;;;;;;;0.10;0.10;;;6.10;1.00;226.50;231333.00;;;;5020535;28;20204;-70
2022/03/18 05:37:25;;;;;;;0.10;0.10;;;5.90;1.00;226.50;231333.00;;;;5019040;28;20628;-70
2022/03/18 05:39:52;;;;;;;0.10;0.10;;;6.00;1.00;226.50;231333.00;;;;5020545;28;20221;-70
2022/03/18 05:42:22;;;;;;;0.10;0.10;;;6.00;1.00;226.50;231333.00;;;;5020440;28;20231;-70
2022/03/18 05:44:50;;;;;;;0.10;0.10;;;6.00;1.00;226.50;231333.00;;;;5019570;28;20281;-70
2022/03/18 05:47:19;;;;;;;0.10;0.10;;;6.10;1.00;226.50;231333.00;;;;5000279;28;20306;-70
2022/03/18 05:49:47;;;;;;;0.10;0.10;;;6.00;1.00;226.50;231333.00;;;;5020670;28;20684;-70
2022/03/18 05:52:15;;;;;;;0.10;0.10;;;6.00;1.00;226.50;231333.00;;;;5009505;28;20211;-71
2022/03/18 05:54:43;;;;;;;0.10;0.10;;;6.00;1.00;226.50;231333.00;;;;5019525;28;20222;-71
2022/03/18 05:57:11;;;;;;;0.10;0.10;;;5.90;1.00;226.50;231333.00;;;;5022057;28;20207;-71
2022/03/18 05:59:41;;;;;;;0.10;0.10;;;5.90;1.00;226.50;231333.00;;;;5019091;28;20195;-71
2022/03/18 06:02:09;;;;;;;0.10;0.10;;;5.90;1.00;226.50;231333.00;;;;5020424;28;20218;-70
2022/03/18 06:04:37;;;;;;;0.10;0.10;;;6.00;1.00;226.50;231333.00;;;;5017626;28;20272;-71
2022/03/18 06:07:06;;;;;;;0.10;0.10;;;6.00;1.00;226.50;231333.00;;;;5019773;28;20216;-71
2022/03/18 06:12:20;;;;;;;0.10;0.10;;;5.90;1.00;226.50;231333.00;;;;5019842;28;20309;-71
2022/03/18 06:14:49;;;;;;;0.10;0.10;;;5.90;1.00;226.50;231333.00;;;;5020882;28;20286;-71
2022/03/18 06:17:17;;;;;;;0.10;0.10;;;5.90;1.00;226.50;231333.00;;;;5020398;28;21456;-71
2022/03/18 06:19:45;;;;;;;0.05;0.05;;;6.00;1.00;226.50;231333.00;;;;5021531;28;20230;-71
2022/03/18 06:22:13;;;;;;;0.10;0.10;;;6.00;1.00;226.50;231333.00;;;;5023473;28;20216;-70
2022/03/18 06:24:41;;;;;;;0.10;0.10;;;6.00;1.00;226.50;231333.00;;;;5022743;28;20553;-70
2022/03/18 06:27:10;;;;;;;0.10;0.10;;;6.00;1.00;226.50;231333.00;;;;5021463;28;20219;-71
2022/03/18 06:29:43;;;;;;;0.10;0.10;;;5.90;1.00;226.50;231333.00;;;;5023723;28;20220;-71
2022/03/18 06:32:12;;;;;;;0.10;0.10;;;5.90;1.00;226.50;231333.00;;;;5022827;28;20219;-71
2022/03/18 06:34:40;;;;;;;0.05;0.05;;;5.90;1.00;226.50;231333.00;;;;5022794;28;20194;-71
2022/03/18 06:37:08;;;;;;;0.00;0.00;;;5.90;1.00;226.50;231333.00;;;;5022656;28;20199;-71
2022/03/18 06:39:36;;;;;;;0.05;0.05;;;5.90;1.00;226.50;231333.00;;;;5023840;28;20591;-71
2022/03/18 06:42:05;;;;;;;0.00;0.00;;;5.90;1.00;226.50;231333.00;;;;5024231;28;20262;-72
2022/03/18 06:44:33;;;;;;;0.10;0.10;;;5.90;1.00;226.50;231333.00;;;;5023568;28;20235;-72
2022/03/18 06:47:01;;;;;;;0.10;0.10;;;5.90;1.00;226.50;231333.00;;;;5022721;28;20285;-71
2022/03/18 06:49:30;;;;;;;0.10;0.10;;;5.90;1.00;226.50;231333.00;;;;5022080;28;20688;-72
2022/03/18 06:51:59;;;;;;;0.10;0.10;;;5.80;1.00;226.50;231333.00;;;;5022103;28;20751;-72
2022/03/18 06:54:27;;;;;;;0.10;0.10;;;5.90;1.00;226.50;231333.00;;;;5021817;28;20204;-71
2022/03/18 06:56:55;;;;;;;0.10;0.10;;;5.80;1.00;226.50;231333.00;;;;5024478;28;20226;-71
2022/03/18 06:59:23;;;;;;;0.00;0.00;;;5.90;1.00;226.50;231333.00;;;;5024485;28;20260;-71
2022/03/18 07:01:53;;;;;;;0.10;0.10;;;5.80;1.00;226.50;231333.00;;;;5027066;28;20266;-72
2022/03/18 07:04:24;;;;;;;0.10;0.10;;;5.80;1.00;226.50;231333.00;;;;5025229;28;20251;-72
2022/03/18 07:06:53;;;;;;;0.10;0.10;;;5.80;1.00;226.50;231333.00;;;;5023702;28;20212;-72
2022/03/18 07:09:21;;;;;;;0.10;0.10;;;5.80;1.00;226.50;231333.00;;;;5023619;28;20253;-72
2022/03/18 07:11:49;;;;;;;0.10;0.10;;;5.80;1.00;226.50;231333.00;;;;5023429;28;20221;-72
2022/03/18 07:14:18;;;;;;;0.10;0.10;;;5.90;1.00;226.50;231333.00;;;;5024035;28;20203;-72
2022/03/18 07:19:33;;;;;;;0.10;0.10;;;5.80;1.00;226.50;231333.00;;;;5023250;28;20199;-72
2022/03/18 07:22:03;;;;;;;0.10;0.10;;;5.80;1.00;226.50;231333.00;;;;5021401;28;20219;-71
2022/03/18 07:24:31;;;;;;;0.10;0.10;;;5.90;1.00;226.50;231333.00;;;;5022482;28;20191;-72
2022/03/18 07:26:59;;;;;;;0.10;0.10;;;5.90;1.00;226.50;231333.00;;;;5021908;28;20219;-72
2022/03/18 07:29:28;;;;;;;0.10;0.10;;;5.90;1.00;226.50;231333.00;;;;5022867;28;20626;-72
2022/03/18 07:31:55;;;;;;;0.10;0.10;;;5.90;1.00;226.50;231333.00;;;;5028825;28;20219;-72
2022/03/18 07:34:24;;;;;;;0.10;0.10;;;5.80;1.00;226.50;231333.00;;;;5022502;28;20265;-72
2022/03/18 07:36:52;;;;;;;0.10;0.10;;;5.90;1.00;226.50;231333.00;;;;5021919;28;20242;-72
2022/03/18 07:39:22;;;;;;;0.10;0.10;;;5.80;1.00;226.50;231333.00;;;;5022132;28;20242;-72
2022/03/18 07:41:49;;;;;;;0.10;0.10;;;5.80;1.00;226.50;231333.00;;;;5005037;28;20309;-72
2022/03/18 07:44:19;;;;;;;0.10;0.10;;;5.80;1.00;226.50;231333.00;;;;5022491;28;20187;-72
2022/03/18 07:46:47;;;;;;;0.10;0.10;;;5.80;1.00;226.50;231333.00;;;;5020752;28;20258;-71
2022/03/18 07:49:14;;;;;;;0.00;0.00;;;5.80;1.00;226.50;231333.00;;;;5022753;28;20269;-72
2022/03/18 07:51:42;;;;;;;0.10;0.10;;;5.80;1.00;226.50;231333.00;;;;5021877;28;20268;-72
2022/03/18 07:54:10;;;;;;;0.10;0.10;;;5.80;1.00;226.50;231333.00;;;;5021517;28;20200;-72
2022/03/18 07:56:40;;;;;;;0.10;0.10;;;5.80;1.00;226.50;231333.00;;;;5021493;28;20207;-72
2022/03/18 07:59:08;;;;;;;0.10;0.10;;;5.80;1.00;226.50;231333.00;;;;5022927;28;20206;-71
2022/03/18 08:01:38;;;;;;;0.10;0.10;;;5.80;1.00;226.50;231333.00;;;;5022246;28;20188;-71
2022/03/18 08:04:09;;;;;;;0.10;0.10;;;5.80;1.00;226.50;231333.00;;;;5022167;28;20196;-71
2022/03/18 08:06:37;;;;;;;0.10;0.10;;;5.80;1.00;226.50;231333.00;;;;5022213;28;20200;-72
2022/03/18 08:09:05;;;;;;;0.10;0.10;;;5.80;1.00;226.50;231333.00;;;;5021619;28;20545;-71
2022/03/18 08:11:33;;;;;;;0.10;0.10;;;5.80;1.00;226.50;231333.00;;;;5022318;28;20740;-71
2022/03/18 08:14:03;;;;;;;0.03;0.03;;;5.80;1.00;226.50;231333.00;;;;5021807;28;20922;-71
2022/03/18 08:16:31;;;;;;;0.10;0.10;;;5.80;1.00;226.50;231333.00;;;;5021893;28;20253;-71
2022/03/18 08:18:59;;;;;;;0.00;0.00;;;5.90;1.00;226.50;231333.00;;;;5022451;28;20200;-71
2022/03/18 08:21:30;;;;;;;0.00;0.00;;;5.90;1.00;226.50;231333.00;;;;5020741;28;20246;-72
2022/03/18 08:23:58;;;;;;;0.00;0.00;;;5.90;1.00;226.50;231333.00;;;;5021864;28;20249;-71
2022/03/18 08:26:26;;;;;;;0.00;0.00;;;5.90;1.00;226.50;231333.00;;;;5020941;28;20199;-71
2022/03/18 08:28:55;;;;;;;0.10;0.10;;;5.80;1.00;226.50;231333.00;;;;5021118;28;20708;-71
2022/03/18 08:31:24;;;;;;;0.00;0.00;;;5.80;1.00;226.50;231333.00;;;;5021667;28;20708;-72
2022/03/18 08:33:52;;;;;;;0.10;0.10;;;5.80;1.00;226.50;231333.00;;;;5022722;28;20192;-72
2022/03/18 08:36:20;;;;;;;0.10;0.10;;;5.80;1.00;226.50;231333.00;;;;5021497;28;20210;-72
2022/03/18 08:38:48;;;;;;;0.03;0.03;;;5.90;1.00;226.50;231333.00;;;;5022016;28;20258;-71
2022/03/18 08:41:16;;;;;;;0.05;0.05;;;5.90;1.00;226.50;231333.00;;;;5020366;28;20195;-71
2022/03/18 08:43:44;;;;;;;0.10;0.10;;;5.90;1.00;226.50;231333.00;;;;5021942;28;20265;-71
2022/03/18 08:46:12;;;;;;;0.10;0.10;;;6.00;1.00;226.50;231333.00;;;;5010555;28;20199;-71
2022/03/18 08:48:42;;;;;;;0.10;0.10;;;6.00;1.00;226.50;231333.00;;;;5020851;28;20215;-72
2022/03/18 08:51:11;;;;;;;0.10;0.10;;;6.00;1.00;226.50;231333.00;;;;5021663;28;20195;-72
2022/03/18 08:53:39;;;;;;;0.00;0.00;;;6.00;1.00;226.50;231333.00;;;;5025024;28;20214;-71
2022/03/18 08:56:07;;;;;;;0.10;0.10;;;6.00;1.00;226.50;231333.00;;;;5025227;28;20207;-71
2022/03/18 08:58:35;;;;;;;0.10;0.10;;;6.00;1.00;226.50;231333.00;;;;5023293;28;20238;-71
2022/03/18 09:01:03;;;;;;;0.10;0.10;;;6.00;1.00;226.50;231333.00;;;;5024591;28;20734;-71
2022/03/18 09:03:31;;;;;;;0.10;0.10;;;6.00;1.00;226.50;231333.00;;;;5025795;28;20668;-72
2022/03/18 09:06:01;;;;;;;0.10;0.10;;;6.00;1.00;226.50;231333.00;;;;5024160;28;20660;-71
2022/03/18 09:08:29;;;;;;;0.10;0.10;;;6.00;1.00;226.50;231333.00;;;;5025499;28;20223;-71
2022/03/18 09:10:57;;;;;;;0.10;0.10;;;6.00;1.00;226.50;231333.00;;;;5024954;28;20199;-71
2022/03/18 09:13:25;;;;;;;0.10;0.10;;;6.00;1.00;226.50;231333.00;;;;5023535;28;20272;-71
2022/03/18 09:15:53;;;;;;;0.10;0.10;;;6.00;1.00;226.50;231333.00;;;;5020553;28;20606;-71
2022/03/18 09:18:25;;;;;;;0.03;0.03;;;6.10;1.00;226.50;231333.00;;;;5019998;28;20191;-71
2022/03/18 09:20:53;;;;;;;0.10;0.10;;;6.10;1.00;226.50;231333.00;;;;5021207;28;20218;-71
2022/03/18 09:23:22;;;;;;;0.00;0.00;;;6.10;1.00;226.50;231333.00;;;;5021215;28;20269;-72
2022/03/18 09:25:51;;;;;;;0.10;0.10;;;6.10;1.00;226.50;231333.00;;;;5020682;28;20195;-71
2022/03/18 09:28:19;;;;;;;0.10;0.10;;;6.00;1.00;226.50;231333.00;;;;5020290;28;20215;-71
2022/03/18 09:30:51;;;;;;;0.10;0.10;;;6.10;1.00;226.50;231333.00;;;;5020193;28;20532;-71
2022/03/18 09:33:19;;;;;;;0.10;0.10;;;6.10;1.00;226.50;231333.00;;;;5020758;28;20238;-71
2022/03/18 09:35:47;;;;;;;0.10;0.10;;;6.10;1.00;226.50;231333.00;;;;5020048;28;20879;-71
2022/03/18 09:38:16;;;;;;;0.10;0.10;;;6.00;1.00;226.50;231333.00;;;;5020548;28;20591;-71
2022/03/18 09:40:46;;;;;;;0.10;0.10;;;6.10;1.00;226.50;231333.00;;;;5019428;28;20266;-71
2022/03/18 09:43:34;;;;;;;0.03;0.03;;;6.10;1.00;226.50;231333.00;;;;5019800;28;20227;-71
2022/03/18 09:46:04;;;;;;;0.00;0.00;;;6.00;1.00;226.50;231333.00;;;;5018668;28;20186;-71
2022/03/18 09:48:52;;;;;;;0.10;0.10;;;6.00;1.00;226.50;231333.00;;;;5020510;28;20281;-71
2022/03/18 09:51:21;;;;;;;0.10;0.10;;;6.00;1.00;226.50;231333.00;;;;5020507;28;20218;-72
2022/03/18 09:54:10;;;;;;;0.10;0.10;;;5.90;1.00;226.50;231333.00;;;;5019980;28;20218;-71
2022/03/18 09:56:43;;;;;;;0.00;0.00;;;6.00;1.00;226.50;231333.00;;;;5019597;28;20191;-71
2022/03/18 09:59:12;;;;;;;0.10;0.10;;;5.90;1.00;226.50;231333.00;;;;5020881;28;20227;-72
2022/03/18 10:01:40;;;;;;;0.10;0.10;;;6.00;1.00;226.50;231333.00;;;;5021038;28;20219;-72
2022/03/18 10:04:12;;;;;;;0.03;0.03;;;6.00;1.00;226.50;231333.00;;;;5021005;28;20706;-71
2022/03/18 10:06:42;;;;;;;0.10;0.10;;;6.00;1.00;226.50;231333.00;;;;5020690;28;20673;-71
2022/03/18 10:09:12;;;;;;;0.10;0.10;;;6.10;1.00;226.50;231333.00;;;;5020495;28;20306;-72
2022/03/18 10:11:43;;;;;;;0.10;0.10;;;6.10;1.00;226.50;231333.00;;;;5018904;28;20215;-72
2022/03/18 10:14:18;;;;;;;0.10;0.10;;;6.10;1.00;226.50;231333.00;;;;5020005;28;20191;-71
2022/03/18 10:16:48;;;;;;;0.10;0.10;;;6.20;1.00;226.50;231333.00;;;;5018867;28;20253;-72
2022/03/18 10:19:19;;;;;;;0.10;0.10;;;6.10;1.00;226.50;231333.00;;;;5020389;28;20202;-71
2022/03/18 10:21:53;;;;;;;0.10;0.10;;;6.10;1.00;226.50;231333.00;;;;5020366;28;20268;-72
2022/03/18 10:24:27;;;;;;;0.10;0.10;;;6.10;1.00;226.50;231333.00;;;;5019904;28;20247;-72
2022/03/18 10:27:13;;;;;;;0.10;0.10;;;6.20;1.00;226.50;231333.00;;;;5019356;28;20204;-72
2022/03/18 10:29:43;;;;;;;0.10;0.10;;;6.20;1.00;226.50;231333.00;;;;5019308;28;20226;-72
2022/03/18 10:32:12;;;;;;;0.00;0.00;;;6.20;1.00;226.50;231333.00;;;;5019851;28;20672;-71
2022/03/18 10:37:42;;;;;;;0.10;0.10;;;6.20;1.00;226.50;231333.00;;;;5019345;28;20204;-71
2022/03/18 10:40:12;;;;;;;0.10;0.10;;;6.30;1.00;226.50;231333.00;;;;5019465;28;20196;-72
2022/03/18 10:42:42;;;;;;;0.00;0.00;;;6.30;1.00;226.50;231333.00;;;;5019313;28;20227;-72
2022/03/18 10:45:10;;;;;;;0.10;0.10;;;6.30;1.00;226.50;231333.00;;;;5020753;28;20202;-72
2022/03/18 10:47:41;;;;;;;0.10;0.10;;;6.30;1.00;226.50;231333.00;;;;5019804;28;20260;-72
2022/03/18 10:50:24;;;;;;;0.00;0.00;;;6.40;1.00;226.50;231333.00;;;;5020142;28;20230;-72
2022/03/18 10:53:08;;;;;;;0.10;0.10;;;6.50;1.00;226.50;231333.00;;;;5025545;28;20257;-72
2022/03/18 10:55:39;;;;;;;0.10;0.10;;;6.40;1.00;226.50;231333.00;;;;5019216;28;20653;-72
2022/03/18 10:58:12;;;;;;;0.10;0.10;;;6.50;1.00;226.50;231333.00;;;;5019845;28;20195;-72
2022/03/18 11:00:43;;;;;;;0.10;0.10;;;6.50;1.00;226.50;231333.00;;;;5018756;28;20186;-72
2022/03/18 11:03:13;;;;;;;0.10;0.10;;;6.50;1.00;226.50;231333.00;;;;5019628;28;20216;-72
2022/03/18 11:05:45;;;;;;;0.10;0.10;;;6.50;1.00;226.50;231333.00;;;;5022651;28;20279;-72
2022/03/18 11:08:17;;;;;;;0.00;0.00;;;6.50;1.00;226.50;231333.00;;;;5025143;28;20192;-72
2022/03/18 11:11:11;;;;;;;0.10;0.10;;;6.50;1.00;226.50;231333.00;;;;5026347;28;20218;-73
2022/03/18 11:14:03;;;;;;;0.10;0.10;;;6.50;1.00;226.50;231333.00;;;;5032237;28;20211;-72
2022/03/18 11:16:38;;;;;;;0.10;0.10;;;6.60;1.00;226.50;231333.00;;;;5031515;28;20560;-72
2022/03/18 11:19:14;;;;;;;0.10;0.10;;;6.60;1.00;226.50;231333.00;;;;5029724;28;20635;-72
2022/03/18 11:21:43;;;;;;;0.00;0.00;;;6.70;1.00;226.50;231333.00;;;;5028739;28;20278;-72